KGRF

Gray AAF Airport

Fort Lewis/Tacoma, Washington, USA
METAR KGRF 230258Z 32008KT 10SM CLR 24/12 A2981 RMK AO2A SLP097 T02350122 55006 $
Observed Flight Rules
May-23 @ 02:58 UTC (18 minutes ago) Visual Flight Rules
Wind Visibility Clouds
320° at 8 knots 10 miles
  • Clear skies
Temperatures Readings
Current 24°C / 75°F
Dewpoint 12°C / 54°F
Humidity 47%
Altimeter 29.81" Hg
Pressure 1009.7 hPa
Elevation 92
METAR KGRF 230258Z 32008KT 10SM CLR 24/12 A2981 RMK AO2A SLP097 T02350122 55006 $
Observed Flight Rules
May-23 @ 02:58 UTC
(18 minutes ago)
VFR
Wind Visibility
320° at 8 knots 10 miles
Clouds
  • Clear skies
Temperature Dewpoint
24°C / 75°F 12°C / 54°F
Humidity Altimeter Pressure
47% 29.81" Hg 1009.7 hPa